Airport View

Enter AWOS ICAO identifier for current METAR.

ex. KFNL

KLNL 221840Z AUTO 32008G19KT 300V360 10SM SCT060 BKN075 24/09 A3015 RMK AO2 T02350086

22 Jul 2019 18:40

Frequency: 119.525

Phone: 715-547-6313

Other Area AWOS: KEGV - KARV - KD25 - KRHI

TAF KRHI 221736Z 2218/2318 32009KT P6SM SCT050 FM230000 31005KT P6SM SCT050 FM230700 VRB03KT 6SM BR SCT150 FM231300 31008KT P6SM BKN150